createdAt,value
2017-03-14T00:00:29.691Z,5.73
2017-03-14T00:01:10.341Z,5.76
2017-03-14T00:01:50.989Z,5.79
2017-03-14T00:02:31.650Z,5.69
2017-03-14T00:03:12.295Z,5.72
2017-03-14T00:03:52.953Z,5.66
2017-03-14T00:04:33.608Z,5.75
2017-03-14T00:05:14.262Z,5.75
2017-03-14T00:05:54.904Z,5.75
2017-03-14T00:06:35.566Z,5.72
2017-03-14T00:07:16.217Z,5.75
2017-03-14T00:07:56.868Z,5.71
2017-03-14T00:08:37.527Z,5.66
2017-03-14T00:09:18.177Z,5.68
2017-03-14T00:09:58.832Z,5.71
2017-03-14T00:10:39.482Z,5.61
2017-03-14T00:11:20.134Z,5.68
2017-03-14T00:12:00.715Z,5.65
2017-03-14T00:12:41.342Z,5.53
2017-03-14T00:13:21.879Z,5.66
2017-03-14T00:14:02.540Z,5.57
2017-03-14T00:14:43.129Z,5.71
2017-03-14T00:15:23.716Z,5.61
2017-03-14T00:16:04.298Z,5.66
2017-03-14T00:16:44.952Z,5.68
2017-03-14T00:17:25.599Z,5.66
2017-03-14T00:18:06.246Z,5.68
2017-03-14T00:18:46.933Z,5.68
2017-03-14T00:19:27.550Z,5.59
2017-03-14T00:20:08.216Z,5.66
2017-03-14T00:20:48.863Z,5.71
2017-03-14T00:21:29.516Z,5.71
2017-03-14T00:22:10.164Z,5.59
2017-03-14T00:22:50.825Z,5.69
2017-03-14T00:23:31.475Z,5.61
2017-03-14T00:24:12.121Z,5.59
2017-03-14T00:24:52.786Z,5.68
2017-03-14T00:25:33.435Z,5.65
2017-03-14T00:26:14.090Z,5.59
2017-03-14T00:26:54.672Z,5.61
2017-03-14T00:27:35.273Z,5.71
2017-03-14T00:28:15.849Z,5.65
2017-03-14T00:28:56.493Z,5.66
2017-03-14T00:29:37.079Z,5.65
2017-03-14T00:30:17.688Z,5.61
2017-03-14T00:30:58.242Z,5.69
2017-03-14T00:31:38.904Z,5.69
2017-03-14T00:32:19.597Z,5.68
2017-03-14T00:33:00.186Z,5.59
2017-03-14T00:33:40.761Z,5.66
2017-03-14T00:34:21.412Z,5.64
2017-03-14T00:35:01.995Z,5.66
2017-03-14T00:35:42.595Z,5.65
2017-03-14T00:36:23.173Z,5.69
2017-03-14T00:37:03.821Z,5.64
2017-03-14T00:37:44.474Z,5.62
2017-03-14T00:38:25.123Z,5.65
2017-03-14T00:39:05.771Z,5.66
2017-03-14T00:39:46.441Z,5.66
2017-03-14T00:40:27.091Z,5.64
2017-03-14T00:41:07.733Z,5.68
2017-03-14T00:41:48.328Z,5.68
2017-03-14T00:42:28.923Z,5.64
2017-03-14T00:43:09.480Z,5.68
2017-03-14T00:43:50.151Z,5.64
2017-03-14T00:44:30.733Z,5.68
2017-03-14T00:45:11.330Z,5.61
2017-03-14T00:45:51.899Z,5.68
2017-03-14T00:46:32.537Z,5.66
2017-03-14T00:47:13.137Z,5.66
2017-03-14T00:47:53.736Z,5.64
2017-03-14T00:48:34.307Z,5.64
2017-03-14T00:49:14.964Z,5.64
2017-03-14T00:49:55.549Z,5.68
2017-03-14T00:50:36.158Z,5.59
2017-03-14T00:51:16.731Z,5.71
2017-03-14T00:51:57.363Z,5.64
2017-03-14T00:52:38.000Z,5.66
2017-03-14T00:53:18.563Z,5.68
2017-03-14T00:53:59.224Z,5.66
2017-03-14T00:54:39.856Z,5.65
2017-03-14T00:55:20.472Z,5.66
2017-03-14T00:56:01.075Z,5.66
2017-03-14T00:56:41.709Z,5.69
2017-03-14T00:57:22.266Z,5.64
2017-03-14T00:58:02.940Z,5.66
2017-03-14T00:58:43.588Z,5.68
2017-03-14T00:59:24.237Z,5.65
2017-03-14T01:00:04.882Z,5.59
2017-03-14T01:00:45.570Z,5.66
2017-03-14T01:01:26.300Z,5.64
2017-03-14T01:02:06.949Z,5.65
2017-03-14T01:02:47.591Z,5.62
2017-03-14T01:03:28.258Z,5.71
2017-03-14T01:04:08.908Z,5.61
2017-03-14T01:04:49.570Z,5.72
2017-03-14T01:05:30.226Z,5.61
2017-03-14T01:06:10.906Z,5.65
2017-03-14T01:06:51.527Z,5.66
2017-03-14T01:07:32.185Z,5.66
2017-03-14T01:08:12.835Z,5.66
2017-03-14T01:08:53.478Z,5.61
2017-03-14T01:09:34.127Z,5.64
2017-03-14T01:10:14.794Z,5.57
2017-03-14T01:10:55.439Z,5.64
2017-03-14T01:11:36.099Z,5.61
2017-03-14T01:12:16.725Z,5.65
2017-03-14T01:12:57.303Z,5.64
2017-03-14T01:13:37.942Z,5.66
2017-03-14T01:14:18.587Z,5.62
2017-03-14T01:14:59.151Z,5.65
2017-03-14T01:15:39.809Z,5.64
2017-03-14T01:16:20.439Z,5.64
2017-03-14T01:17:01.028Z,5.57
2017-03-14T01:17:41.676Z,5.64
2017-03-14T01:18:22.331Z,5.59
2017-03-14T01:19:02.966Z,5.68
2017-03-14T01:19:43.618Z,5.61
2017-03-14T01:20:24.270Z,5.62
2017-03-14T01:21:04.932Z,5.59
2017-03-14T01:21:45.511Z,5.56
2017-03-14T01:22:26.126Z,5.56
2017-03-14T01:23:06.687Z,5.66
2017-03-14T01:23:47.331Z,5.65
2017-03-14T01:24:27.928Z,5.56
2017-03-14T01:25:08.523Z,5.61
2017-03-14T01:25:49.083Z,5.57
2017-03-14T01:26:29.732Z,5.61
2017-03-14T01:27:10.399Z,5.62
2017-03-14T01:27:51.001Z,5.59
2017-03-14T01:28:31.572Z,5.64
2017-03-14T01:29:14.168Z,5.51
2017-03-14T01:29:54.753Z,5.62
2017-03-14T01:30:35.352Z,5.61
2017-03-14T01:31:15.938Z,5.57
2017-03-14T01:31:58.516Z,5.59
2017-03-14T01:32:40.194Z,5.48
2017-03-14T01:33:21.874Z,5.57
2017-03-14T01:34:02.525Z,5.56
2017-03-14T01:34:43.186Z,5.57
2017-03-14T01:35:24.850Z,5.48
2017-03-14T01:36:06.542Z,5.62
2017-03-14T01:36:48.196Z,5.59
2017-03-14T01:37:28.779Z,5.51
2017-03-14T01:38:09.426Z,5.51
2017-03-14T01:38:50.052Z,5.5
2017-03-14T01:39:30.636Z,5.47
2017-03-14T01:40:11.282Z,5.47
2017-03-14T01:40:51.906Z,5.46
2017-03-14T01:41:32.484Z,5.54
2017-03-14T01:42:14.162Z,5.47
2017-03-14T01:42:54.848Z,5.48
2017-03-14T01:43:35.439Z,5.51
2017-03-14T01:44:16.003Z,5.5
2017-03-14T01:44:56.655Z,5.46
2017-03-14T01:45:37.252Z,5.48
2017-03-14T01:46:17.846Z,5.48
2017-03-14T01:46:58.495Z,5.53
2017-03-14T01:47:41.196Z,5.51
2017-03-14T01:48:21.856Z,5.59
2017-03-14T01:49:03.428Z,5.5
2017-03-14T01:49:44.082Z,5.51
2017-03-14T01:50:24.735Z,5.56
2017-03-14T01:51:06.319Z,5.59
2017-03-14T01:51:46.890Z,5.44
2017-03-14T01:52:32.028Z,5.48
2017-03-14T01:53:12.641Z,5.48
2017-03-14T01:53:55.270Z,5.46
2017-03-14T01:54:35.844Z,5.59
2017-03-14T01:55:16.491Z,5.61
2017-03-14T01:55:57.082Z,5.46
2017-03-14T01:56:37.675Z,5.44
2017-03-14T01:57:20.282Z,5.61
2017-03-14T01:58:01.883Z,5.5
2017-03-14T01:58:42.440Z,5.43
2017-03-14T01:59:23.053Z,5.43
2017-03-14T02:00:03.704Z,5.61
2017-03-14T02:00:44.355Z,5.59
2017-03-14T02:01:25.017Z,5.56
2017-03-14T02:02:07.615Z,5.46
2017-03-14T02:02:48.264Z,5.61
2017-03-14T02:03:30.873Z,5.59
2017-03-14T02:04:16.233Z,5.51
2017-03-14T02:04:57.909Z,5.53
2017-03-14T02:05:38.563Z,5.59
2017-03-14T02:06:20.238Z,5.54
2017-03-14T02:07:00.806Z,5.51
2017-03-14T02:07:41.446Z,5.5
2017-03-14T02:08:22.120Z,5.47
2017-03-14T02:09:02.770Z,5.59
2017-03-14T02:09:44.449Z,5.59
2017-03-14T02:10:25.103Z,5.62
2017-03-14T02:11:05.787Z,5.47
2017-03-14T02:11:46.386Z,5.51
2017-03-14T02:12:26.937Z,5.46
2017-03-14T02:13:07.603Z,5.54
2017-03-14T02:13:48.240Z,5.54
2017-03-14T02:14:28.812Z,5.5
2017-03-14T02:15:10.468Z,5.47
2017-03-14T02:15:51.119Z,5.51
2017-03-14T02:16:31.698Z,5.46
2017-03-14T02:17:14.272Z,5.51
2017-03-14T02:17:55.903Z,5.5
2017-03-14T02:18:36.598Z,5.51
2017-03-14T02:19:17.149Z,5.39
2017-03-14T02:19:57.801Z,5.48
2017-03-14T02:20:39.426Z,5.43
2017-03-14T02:21:20.030Z,5.51
2017-03-14T02:22:00.602Z,5.41
2017-03-14T02:22:53.007Z,5.41
2017-03-14T02:23:33.661Z,5.35
2017-03-14T02:24:14.210Z,5.39
2017-03-14T02:24:55.809Z,5.44
2017-03-14T02:25:36.439Z,5.39
2017-03-14T02:26:17.013Z,5.41
2017-03-14T02:26:57.662Z,5.41
2017-03-14T02:27:38.331Z,5.41
2017-03-14T02:28:20.997Z,5.38
2017-03-14T02:29:02.700Z,5.39
2017-03-14T02:29:43.355Z,5.36
2017-03-14T02:30:24.001Z,5.43
2017-03-14T02:31:04.649Z,5.43
2017-03-14T02:31:45.286Z,5.39
2017-03-14T02:32:25.964Z,5.44
2017-03-14T02:33:06.615Z,5.36
2017-03-14T02:33:47.265Z,5.41
2017-03-14T02:34:27.921Z,5.35
2017-03-14T02:35:08.547Z,5.47
2017-03-14T02:35:49.215Z,5.5
2017-03-14T02:36:30.414Z,5.48
2017-03-14T02:37:11.075Z,5.41
2017-03-14T02:37:51.773Z,5.46
2017-03-14T02:38:32.363Z,5.47
2017-03-14T02:39:12.987Z,5.46
2017-03-14T02:39:54.609Z,5.46
2017-03-14T02:40:36.229Z,5.48
2017-03-14T02:41:16.787Z,5.59
2017-03-14T02:41:57.438Z,5.44
2017-03-14T02:42:38.110Z,5.59
2017-03-14T02:43:18.745Z,5.46
2017-03-14T02:43:59.390Z,5.47
2017-03-14T02:44:40.989Z,5.46
2017-03-14T02:45:21.641Z,5.56
2017-03-14T02:46:03.346Z,5.48
2017-03-14T02:46:43.973Z,5.59
2017-03-14T02:47:24.551Z,5.56
2017-03-14T02:48:05.114Z,5.53
2017-03-14T02:48:45.829Z,5.46
2017-03-14T02:49:31.269Z,5.61
2017-03-14T02:50:11.845Z,5.48
2017-03-14T02:50:53.536Z,5.59
2017-03-14T02:51:34.228Z,5.46
2017-03-14T02:52:14.810Z,5.5
2017-03-14T02:52:56.479Z,5.43
2017-03-14T02:53:37.130Z,5.51
2017-03-14T02:54:17.782Z,5.35
2017-03-14T02:55:00.481Z,5.38
2017-03-14T02:55:42.154Z,5.46
2017-03-14T02:56:22.816Z,5.44
2017-03-14T02:57:04.484Z,5.33
2017-03-14T02:57:45.146Z,5.33
2017-03-14T02:58:32.556Z,5.36
2017-03-14T02:59:18.233Z,5.43
2017-03-14T02:59:58.871Z,5.35
2017-03-14T03:00:41.572Z,5.32
2017-03-14T03:01:24.291Z,5.35
2017-03-14T03:02:15.928Z,5.29
2017-03-14T03:03:03.282Z,5.25
2017-03-14T03:03:43.838Z,5.26
2017-03-14T03:04:29.128Z,5.26
2017-03-14T03:05:11.755Z,5.25
2017-03-14T03:05:54.398Z,5.23
2017-03-14T03:06:34.959Z,5.23
2017-03-14T03:07:15.625Z,5.28
2017-03-14T03:07:56.260Z,5.21
2017-03-14T03:08:36.815Z,5.18
2017-03-14T03:09:19.445Z,5.14
2017-03-14T03:10:00.054Z,5.18
2017-03-14T03:10:40.628Z,5.18
2017-03-14T03:11:22.297Z,5.15
2017-03-14T03:12:03.955Z,5.11
2017-03-14T03:12:44.609Z,5.08
2017-03-14T03:13:25.263Z,5.11
2017-03-14T03:14:07.965Z,5.05
2017-03-14T03:14:48.613Z,5.04
2017-03-14T03:15:30.297Z,5.02
2017-03-14T03:16:11.968Z,5.1
2017-03-14T03:16:52.543Z,5.05
2017-03-14T03:17:40.053Z,5.04
2017-03-14T03:18:20.747Z,5.08
2017-03-14T03:19:02.367Z,5.04
2017-03-14T03:19:42.950Z,5.04
2017-03-14T03:20:25.657Z,5.02
2017-03-14T03:21:06.337Z,5.12
2017-03-14T03:21:51.734Z,5.08
2017-03-14T03:22:32.309Z,5.1
2017-03-14T03:23:12.972Z,5.11
2017-03-14T03:23:54.569Z,5.1
2017-03-14T03:24:39.771Z,5.1
2017-03-14T03:25:20.348Z,5.08
2017-03-14T03:26:01.001Z,5.11
2017-03-14T03:26:46.394Z,5.15
2017-03-14T03:27:26.955Z,5.14
2017-03-14T03:28:07.564Z,5.21
2017-03-14T03:28:52.805Z,5.15
2017-03-14T03:29:33.401Z,5.17
2017-03-14T03:30:15.052Z,5.18
2017-03-14T03:30:55.691Z,5.28
2017-03-14T03:31:36.255Z,5.2
2017-03-14T03:32:16.922Z,5.23
2017-03-14T03:32:57.569Z,5.21
2017-03-14T03:33:39.248Z,5.23
2017-03-14T03:34:19.892Z,5.18
2017-03-14T03:35:01.573Z,5.23
2017-03-14T03:35:42.219Z,5.18
2017-03-14T03:36:23.896Z,5.23
2017-03-14T03:37:06.516Z,5.21
2017-03-14T03:37:47.148Z,5.21
2017-03-14T03:38:27.809Z,5.26
2017-03-14T03:39:08.449Z,5.23
2017-03-14T03:39:54.128Z,5.26
2017-03-14T03:40:41.652Z,5.23
2017-03-14T03:41:23.319Z,5.23
2017-03-14T03:42:03.912Z,5.2
2017-03-14T03:42:44.597Z,5.23
2017-03-14T03:43:25.166Z,5.28
2017-03-14T03:44:10.532Z,5.29
2017-03-14T03:44:56.855Z,5.28
2017-03-14T03:45:38.482Z,5.25
2017-03-14T03:46:19.059Z,5.29
2017-03-14T03:47:00.717Z,5.23
2017-03-14T03:47:46.094Z,5.23
2017-03-14T03:48:31.555Z,5.26
2017-03-14T03:49:12.209Z,5.2
2017-03-14T03:49:52.893Z,5.29
2017-03-14T03:50:33.507Z,5.23
2017-03-14T03:51:16.123Z,5.2
2017-03-14T03:51:56.776Z,5.21
2017-03-14T03:52:44.090Z,5.26
2017-03-14T03:53:24.741Z,5.23
2017-03-14T03:54:05.386Z,5.23
2017-03-14T03:54:58.627Z,5.25
2017-03-14T03:55:39.320Z,5.26
2017-03-14T03:56:25.577Z,5.32
2017-03-14T03:57:17.093Z,5.25
2017-03-14T03:57:57.737Z,5.26
2017-03-14T03:58:39.412Z,5.26
2017-03-14T03:59:20.051Z,5.23
2017-03-14T04:00:01.743Z,5.17
2017-03-14T04:00:47.104Z,5.21
2017-03-14T04:01:34.609Z,5.15
2017-03-14T04:02:16.229Z,5.23
2017-03-14T04:03:08.804Z,5.15
2017-03-14T04:03:49.925Z,5.23
2017-03-14T04:04:31.556Z,5.28
2017-03-14T04:05:13.172Z,5.23
2017-03-14T04:05:53.772Z,5.23
2017-03-14T04:06:34.326Z,5.21
2017-03-14T04:07:16.945Z,5.25
2017-03-14T04:07:58.612Z,5.18
2017-03-14T04:08:39.280Z,5.2
2017-03-14T04:09:24.640Z,5.2
2017-03-14T04:10:07.239Z,5.15
2017-03-14T04:10:53.622Z,5.1
2017-03-14T04:11:39.091Z,5.15
2017-03-14T04:12:20.764Z,5.21
2017-03-14T04:13:03.370Z,5.08
2017-03-14T04:13:45.967Z,5.17
2017-03-14T04:14:33.580Z,5.17
2017-03-14T04:15:26.113Z,5.14
2017-03-14T04:16:07.814Z,5.21
2017-03-14T04:16:53.028Z,5.21
2017-03-14T04:17:39.641Z,5.18
2017-03-14T04:18:26.133Z,5.18
2017-03-14T04:19:08.729Z,5.17
2017-03-14T04:19:51.328Z,5.12
2017-03-14T04:20:31.988Z,5.17
2017-03-14T04:21:17.708Z,5.17
2017-03-14T04:21:59.328Z,5.12
2017-03-14T04:22:40.988Z,5.18
2017-03-14T04:23:21.556Z,5.2
2017-03-14T04:24:04.146Z,5.17
2017-03-14T04:24:45.807Z,5.2
2017-03-14T04:25:26.383Z,5.17
2017-03-14T04:26:11.644Z,5.18
2017-03-14T04:26:52.270Z,5.15
2017-03-14T04:27:32.923Z,5.15
2017-03-14T04:28:20.338Z,5.15
2017-03-14T04:29:11.739Z,5.23
2017-03-14T04:30:04.276Z,5.1
2017-03-14T04:30:50.763Z,5.12
2017-03-14T04:31:31.414Z,5.14
2017-03-14T04:32:13.088Z,5.08
2017-03-14T04:32:54.764Z,5.08
2017-03-14T04:33:35.418Z,5.17
2017-03-14T04:34:16.071Z,5.07
2017-03-14T04:35:01.233Z,5.07
2017-03-14T04:35:42.909Z,5.1
2017-03-14T04:36:23.561Z,5.08
2017-03-14T04:37:04.223Z,5.07
2017-03-14T04:37:44.867Z,5.1
2017-03-14T04:38:26.541Z,5.07
2017-03-14T04:39:07.193Z,5.1
2017-03-14T04:39:49.795Z,5.17
2017-03-14T04:40:35.258Z,5.11
2017-03-14T04:41:15.918Z,5.1
2017-03-14T04:41:56.564Z,5.02
2017-03-14T04:42:38.243Z,5.1
2017-03-14T04:43:18.894Z,5.14
2017-03-14T04:44:00.574Z,5.14
2017-03-14T04:44:43.170Z,5.14
2017-03-14T04:45:25.771Z,5.11
2017-03-14T04:46:11.264Z,5.08
2017-03-14T04:46:52.911Z,5.07
2017-03-14T04:47:35.515Z,5.05
2017-03-14T04:48:16.162Z,5.08
2017-03-14T04:48:56.815Z,5.11
2017-03-14T04:49:37.468Z,5.12
2017-03-14T04:50:18.136Z,5.08
2017-03-14T04:50:59.804Z,5.1
2017-03-14T04:51:41.405Z,5.1
2017-03-14T04:52:21.972Z,5.04
2017-03-14T04:53:02.606Z,4.99
2017-03-14T04:53:43.195Z,5.05
2017-03-14T04:54:23.783Z,5.04
2017-03-14T04:55:04.343Z,5.04
2017-03-14T04:55:46.937Z,5.04
2017-03-14T04:56:27.533Z,5
2017-03-14T04:57:08.135Z,5.1
2017-03-14T04:57:48.791Z,5.08
2017-03-14T04:58:29.438Z,5.05
2017-03-14T04:59:10.102Z,5.1
2017-03-14T04:59:50.748Z,5.07
2017-03-14T05:00:48.310Z,5.05
2017-03-14T05:01:29.973Z,5.07
2017-03-14T05:02:10.547Z,5.1
2017-03-14T05:02:51.196Z,5.07
2017-03-14T05:03:36.399Z,5.05
2017-03-14T05:04:19.038Z,5.11
2017-03-14T05:04:59.608Z,5.08
2017-03-14T05:05:40.262Z,5.12
2017-03-14T05:06:20.842Z,5.14
2017-03-14T05:07:07.281Z,5.05
2017-03-14T05:07:47.906Z,4.96
2017-03-14T05:08:34.142Z,4.96
2017-03-14T05:09:15.825Z,5.07
2017-03-14T05:09:56.469Z,4.89
2017-03-14T05:10:38.144Z,4.94
2017-03-14T05:11:20.743Z,5.02
2017-03-14T05:12:01.396Z,5.08
2017-03-14T05:12:43.994Z,5.08
2017-03-14T05:13:24.667Z,4.97
2017-03-14T05:14:17.079Z,4.93
2017-03-14T05:14:57.725Z,4.99
2017-03-14T05:15:49.133Z,5.05
2017-03-14T05:16:30.819Z,4.9
2017-03-14T05:17:12.483Z,5.02
2017-03-14T05:17:53.052Z,4.99
2017-03-14T05:18:35.657Z,4.96
2017-03-14T05:19:16.288Z,4.96
2017-03-14T05:19:58.885Z,4.99
2017-03-14T05:20:52.135Z,4.96
2017-03-14T05:21:34.739Z,5.04
2017-03-14T05:22:20.307Z,4.9
2017-03-14T05:23:00.849Z,5.05
2017-03-14T05:23:42.541Z,5.02
2017-03-14T05:24:23.162Z,4.97
2017-03-14T05:25:05.440Z,4.89
2017-03-14T05:25:46.027Z,4.89
2017-03-14T05:26:26.657Z,4.99
2017-03-14T05:27:07.225Z,5.1
2017-03-14T05:27:52.595Z,4.96
2017-03-14T05:28:33.180Z,4.97
2017-03-14T05:29:14.796Z,4.97
2017-03-14T05:29:55.393Z,5.07
2017-03-14T05:30:36.026Z,4.96
2017-03-14T05:31:21.429Z,4.99
2017-03-14T05:32:04.066Z,4.99
2017-03-14T05:32:44.724Z,4.96
2017-03-14T05:33:25.370Z,4.96
2017-03-14T05:34:06.022Z,5
2017-03-14T05:34:46.681Z,5
2017-03-14T05:35:27.335Z,5.1
2017-03-14T05:36:12.799Z,5.04
2017-03-14T05:36:55.398Z,5.14
2017-03-14T05:37:46.804Z,5.1
2017-03-14T05:38:29.398Z,5.1
2017-03-14T05:39:11.078Z,5.07
2017-03-14T05:39:51.726Z,5.12
2017-03-14T05:40:32.384Z,5.11
2017-03-14T05:41:12.944Z,5.05
2017-03-14T05:41:53.613Z,5.1
2017-03-14T05:42:40.956Z,5.1
2017-03-14T05:43:22.570Z,5.12
2017-03-14T05:44:03.158Z,5.14
2017-03-14T05:44:43.789Z,5.07
2017-03-14T05:45:24.378Z,5.11
2017-03-14T05:46:05.081Z,5.02
2017-03-14T05:46:45.652Z,5.17
2017-03-14T05:47:27.358Z,5.11
2017-03-14T05:48:12.597Z,5.11
2017-03-14T05:49:08.099Z,5.1
2017-03-14T05:49:48.740Z,5.07
2017-03-14T05:50:29.401Z,5.07
2017-03-14T05:51:10.059Z,5.12
2017-03-14T05:51:51.723Z,5.12
2017-03-14T05:52:33.336Z,5.18
2017-03-14T05:53:13.934Z,5.15
2017-03-14T05:53:54.497Z,5.18
2017-03-14T05:54:37.107Z,5.1
2017-03-14T05:55:18.714Z,5.23
2017-03-14T05:55:59.412Z,5.2
2017-03-14T05:56:39.988Z,5.17
2017-03-14T05:57:22.566Z,5.21
2017-03-14T05:58:04.193Z,5.17
2017-03-14T05:58:46.833Z,5.25
2017-03-14T05:59:27.414Z,5.26
2017-03-14T06:00:08.074Z,5.25
2017-03-14T06:00:55.416Z,5.26
2017-03-14T06:01:40.817Z,5.21
2017-03-14T06:02:21.372Z,5.29
2017-03-14T06:04:24.011Z,5.25
2017-03-14T06:05:04.610Z,5.29
2017-03-14T06:05:45.206Z,5.25
2017-03-14T06:06:25.777Z,5.25
2017-03-14T06:07:07.387Z,5.25
2017-03-14T06:07:49.061Z,5.25
2017-03-14T06:08:29.724Z,5.32
2017-03-14T06:09:12.323Z,5.32
2017-03-14T06:09:54.921Z,5.36
2017-03-14T06:10:35.565Z,5.29
2017-03-14T06:11:22.057Z,5.36
2017-03-14T06:12:03.755Z,5.41
2017-03-14T06:12:44.390Z,5.35
2017-03-14T06:13:25.038Z,5.33
2017-03-14T06:14:07.636Z,5.35
2017-03-14T06:14:48.290Z,5.35
2017-03-14T06:15:28.941Z,5.39
2017-03-14T06:16:14.525Z,5.3
2017-03-14T06:17:01.009Z,5.36
2017-03-14T06:17:41.664Z,5.33
2017-03-14T06:18:23.345Z,5.32
2017-03-14T06:19:03.984Z,5.32
2017-03-14T06:19:45.680Z,5.38
2017-03-14T06:20:27.338Z,5.35
2017-03-14T06:21:12.496Z,5.36
2017-03-14T06:21:54.172Z,5.33
2017-03-14T06:22:35.747Z,5.44
2017-03-14T06:23:18.348Z,5.41
2017-03-14T06:23:59.007Z,5.32
2017-03-14T06:24:39.653Z,5.36
2017-03-14T06:25:20.310Z,5.48
2017-03-14T06:26:00.960Z,5.38
2017-03-14T06:26:42.635Z,5.35
2017-03-14T06:27:23.286Z,5.46
2017-03-14T06:28:03.939Z,5.47
2017-03-14T06:28:49.522Z,5.46
2017-03-14T06:29:30.169Z,5.51
2017-03-14T06:30:10.829Z,5.44
2017-03-14T06:30:53.414Z,5.54
2017-03-14T06:31:36.060Z,5.5
2017-03-14T06:32:16.656Z,5.53
2017-03-14T06:32:57.224Z,5.48
2017-03-14T06:33:37.866Z,5.57
2017-03-14T06:34:18.463Z,5.5
2017-03-14T06:34:59.161Z,5.56
2017-03-14T06:35:39.726Z,5.51
2017-03-14T06:36:20.372Z,5.64
2017-03-14T06:37:01.997Z,5.66
2017-03-14T06:37:42.590Z,5.68
2017-03-14T06:38:23.165Z,5.65
2017-03-14T06:39:03.820Z,5.68
2017-03-14T06:39:49.321Z,5.71
2017-03-14T06:40:29.913Z,5.79
2017-03-14T06:41:10.483Z,5.66
2017-03-14T06:41:51.129Z,5.73
2017-03-14T06:42:33.776Z,5.76
2017-03-14T06:43:14.395Z,5.8
2017-03-14T06:43:54.939Z,5.89
2017-03-14T06:44:35.596Z,5.79
2017-03-14T06:45:16.275Z,5.84
2017-03-14T06:45:58.929Z,5.86
2017-03-14T06:46:39.492Z,5.89
2017-03-14T06:47:20.152Z,5.86
2017-03-14T06:48:06.719Z,5.91
2017-03-14T06:48:47.279Z,5.94
2017-03-14T06:49:27.984Z,5.87
2017-03-14T06:50:09.609Z,5.9
2017-03-14T06:50:50.171Z,5.97
2017-03-14T06:51:30.813Z,5.87
2017-03-14T06:52:11.461Z,5.9
2017-03-14T06:52:54.059Z,5.94
2017-03-14T06:53:34.707Z,5.94
2017-03-14T06:54:16.389Z,5.98
2017-03-14T06:55:01.751Z,5.99
2017-03-14T06:55:42.403Z,5.9
2017-03-14T06:56:23.054Z,5.93
2017-03-14T06:57:03.701Z,6.01
2017-03-14T06:57:44.360Z,6.05
2017-03-14T06:58:26.039Z,6.05
2017-03-14T06:59:06.688Z,5.99
2017-03-14T06:59:47.342Z,5.94
2017-03-14T07:00:27.995Z,6.01
2017-03-14T07:01:08.647Z,5.99
2017-03-14T07:01:49.301Z,5.99
2017-03-14T07:02:29.847Z,5.98
2017-03-14T07:03:10.432Z,6.02
2017-03-14T07:03:52.111Z,6.02
2017-03-14T07:04:32.751Z,5.99
2017-03-14T07:05:13.414Z,6.02
2017-03-14T07:05:54.068Z,6.04
2017-03-14T07:06:34.715Z,6.08
2017-03-14T07:07:22.126Z,6.09
2017-03-14T07:08:02.780Z,6.11
2017-03-14T07:08:44.365Z,6.14
2017-03-14T07:09:25.030Z,6.09
2017-03-14T07:10:05.654Z,6.11
2017-03-14T07:10:53.070Z,6.09
2017-03-14T07:11:33.731Z,6.19
2017-03-14T07:12:15.401Z,6.19
2017-03-14T07:12:56.059Z,6.19
2017-03-14T07:13:38.657Z,6.2
2017-03-14T07:14:19.306Z,6.2
2017-03-14T07:15:00.982Z,6.17
2017-03-14T07:15:47.572Z,6.19
2017-03-14T07:16:28.222Z,6.22
2017-03-14T07:17:08.875Z,6.16
2017-03-14T07:17:49.529Z,6.26
2017-03-14T07:18:36.011Z,6.22
2017-03-14T07:19:17.575Z,6.19
2017-03-14T07:19:58.247Z,6.14
2017-03-14T07:20:38.915Z,6.27
2017-03-14T07:21:20.575Z,6.27
2017-03-14T07:22:02.283Z,6.27
2017-03-14T07:22:49.578Z,6.22
2017-03-14T07:23:32.159Z,6.24
2017-03-14T07:24:19.574Z,6.27
2017-03-14T07:25:01.137Z,6.24
2017-03-14T07:25:47.520Z,6.24
2017-03-14T07:26:30.148Z,6.27
2017-03-14T07:27:11.815Z,6.12
2017-03-14T07:27:59.473Z,6.22
2017-03-14T07:28:40.025Z,6.26
2017-03-14T07:29:21.664Z,6.22
2017-03-14T07:30:02.226Z,6.24
2017-03-14T07:30:43.813Z,6.16
2017-03-14T07:31:24.424Z,6.26
2017-03-14T07:32:05.016Z,6.19
2017-03-14T07:32:47.694Z,6.27
2017-03-14T07:33:28.346Z,6.26
2017-03-14T07:34:08.987Z,6.27
2017-03-14T07:34:49.674Z,6.33
2017-03-14T07:35:30.320Z,6.35
2017-03-14T07:36:21.500Z,6.36
2017-03-14T07:37:02.150Z,6.41
2017-03-14T07:37:42.828Z,6.57
2017-03-14T07:38:24.484Z,6.6
2017-03-14T07:39:06.157Z,6.77
2017-03-14T07:39:48.758Z,6.74
2017-03-14T07:40:29.413Z,6.85
2017-03-14T07:41:15.471Z,6.85
2017-03-14T07:41:57.057Z,7.07
2017-03-14T07:42:39.683Z,7.13
2017-03-14T07:43:22.307Z,7.23
2017-03-14T07:44:02.902Z,7.23
2017-03-14T07:44:43.512Z,7.33
2017-03-14T07:45:25.145Z,7.4
2017-03-14T07:46:07.784Z,7.45
2017-03-14T07:46:50.424Z,7.57
2017-03-14T07:47:30.988Z,7.56
2017-03-14T07:48:12.666Z,7.54
2017-03-14T07:48:58.790Z,7.56
2017-03-14T07:49:39.451Z,7.7
2017-03-14T07:50:20.113Z,7.66
2017-03-14T07:51:05.349Z,7.79
2017-03-14T07:51:47.958Z,7.79
2017-03-14T07:52:29.633Z,7.79
2017-03-14T07:53:15.057Z,7.8
2017-03-14T07:54:06.614Z,7.8
2017-03-14T07:54:47.215Z,7.82
2017-03-14T07:55:38.524Z,7.83
2017-03-14T07:56:20.207Z,7.82
2017-03-14T07:57:00.847Z,7.79
2017-03-14T07:57:46.023Z,7.88
2017-03-14T07:58:26.701Z,7.88
2017-03-14T07:59:07.300Z,7.82
2017-03-14T07:59:47.856Z,7.95
2017-03-14T08:00:29.458Z,7.94
2017-03-14T08:01:10.139Z,7.91
2017-03-14T08:01:50.729Z,7.88
2017-03-14T08:02:31.292Z,7.87
2017-03-14T08:03:17.579Z,7.95
2017-03-14T08:03:59.197Z,7.94
2017-03-14T08:04:39.786Z,7.87
2017-03-14T08:05:20.358Z,7.94
2017-03-14T08:06:05.512Z,7.91
2017-03-14T08:06:46.111Z,7.93
2017-03-14T08:07:26.705Z,7.94
2017-03-14T08:08:07.359Z,7.95
2017-03-14T08:08:48.033Z,7.88
2017-03-14T08:09:28.690Z,7.91
2017-03-14T08:10:09.339Z,7.88
2017-03-14T08:10:49.997Z,7.9
2017-03-14T08:11:30.646Z,7.85
2017-03-14T08:12:11.298Z,7.94
2017-03-14T08:12:51.878Z,7.93
2017-03-14T08:13:32.522Z,7.93
2017-03-14T08:14:13.088Z,7.93
2017-03-14T08:14:53.704Z,7.93
2017-03-14T08:15:34.290Z,8.03
2017-03-14T08:16:14.939Z,8.09
2017-03-14T08:16:55.521Z,8.06
2017-03-14T08:17:36.113Z,7.98
2017-03-14T08:18:16.763Z,7.98
2017-03-14T08:18:57.421Z,8.05
2017-03-14T08:19:38.083Z,8.06
2017-03-14T08:20:18.729Z,8.05
2017-03-14T08:20:59.395Z,8.09
2017-03-14T08:22:47.491Z,8.31
2017-03-14T08:23:28.123Z,8.24
2017-03-14T08:24:08.720Z,8.26
2017-03-14T08:24:49.275Z,8.31
2017-03-14T08:25:29.928Z,8.34
2017-03-14T08:26:11.561Z,8.45
2017-03-14T08:26:52.267Z,8.42
2017-03-14T08:27:32.918Z,8.46
2017-03-14T08:28:13.667Z,8.52
2017-03-14T08:28:55.281Z,8.51
2017-03-14T08:29:35.930Z,8.49
2017-03-14T08:30:17.659Z,8.63
2017-03-14T08:30:58.325Z,8.66
2017-03-14T08:31:39.031Z,8.66
2017-03-14T08:32:19.626Z,8.64
2017-03-14T08:33:00.186Z,8.69
2017-03-14T08:33:40.811Z,8.71
2017-03-14T08:34:21.435Z,8.67
2017-03-14T08:35:02.083Z,8.78
2017-03-14T08:35:42.747Z,8.79
2017-03-14T08:36:23.392Z,8.82
2017-03-14T08:37:04.058Z,8.95
2017-03-14T08:37:44.729Z,8.91
2017-03-14T08:38:25.381Z,8.95
2017-03-14T08:39:06.003Z,9.08
2017-03-14T08:39:46.640Z,9.08
2017-03-14T08:40:27.318Z,9.19
2017-03-14T08:41:07.969Z,9.16
2017-03-14T08:41:48.615Z,9.16
2017-03-14T08:42:29.295Z,9.22
2017-03-14T08:43:10.008Z,9.1
2017-03-14T08:43:50.553Z,9.26
2017-03-14T08:44:31.146Z,9.29
2017-03-14T08:45:11.769Z,9.25
2017-03-14T08:45:52.362Z,9.26
2017-03-14T08:46:32.964Z,9.21
2017-03-14T08:47:13.519Z,9.25
2017-03-14T08:47:54.092Z,9.26
2017-03-14T08:48:34.731Z,9.26
2017-03-14T08:49:15.426Z,9.29
2017-03-14T08:49:56.028Z,9.28
2017-03-14T08:50:36.610Z,9.28
2017-03-14T08:51:17.268Z,9.25
2017-03-14T08:51:57.843Z,9.26
2017-03-14T08:52:39.460Z,9.26
2017-03-14T08:53:20.030Z,9.31
2017-03-14T08:54:00.685Z,9.37
2017-03-14T08:54:41.260Z,9.37
2017-03-14T08:55:21.865Z,9.36
2017-03-14T08:56:02.430Z,9.23
2017-03-14T08:56:43.075Z,9.39
2017-03-14T08:57:23.678Z,9.34
2017-03-14T08:58:04.335Z,9.4
2017-03-14T08:58:44.979Z,9.43
2017-03-14T08:59:25.638Z,9.43
2017-03-14T09:00:06.290Z,9.4
2017-03-14T09:00:46.931Z,9.59
2017-03-14T09:01:27.592Z,9.46
2017-03-14T09:02:08.254Z,9.46
2017-03-14T09:02:48.902Z,9.62
2017-03-14T09:03:29.547Z,9.46
2017-03-14T09:04:10.202Z,9.51
2017-03-14T09:04:50.756Z,9.58
2017-03-14T09:05:31.367Z,9.55
2017-03-14T09:06:12.035Z,9.55
2017-03-14T09:06:52.682Z,9.55
2017-03-14T09:07:33.369Z,9.64
2017-03-14T09:08:13.986Z,9.66
2017-03-14T09:08:54.622Z,9.64
2017-03-14T09:09:35.281Z,9.61
2017-03-14T09:10:17.892Z,9.73
2017-03-14T09:10:58.544Z,9.61
2017-03-14T09:11:41.142Z,9.65
2017-03-14T09:12:22.836Z,9.65
2017-03-14T09:13:03.523Z,9.72
2017-03-14T09:13:44.227Z,9.72
2017-03-14T09:14:24.811Z,9.77
2017-03-14T09:15:05.465Z,9.79
2017-03-14T09:15:46.130Z,9.82
2017-03-14T09:16:26.830Z,9.91
2017-03-14T09:17:07.440Z,9.84
2017-03-14T09:17:48.081Z,9.97
2017-03-14T09:18:28.775Z,10.01